createdAt,value
2019-04-20T00:04:20.517Z,14.40
2019-04-20T00:09:24.624Z,14.30
2019-04-20T00:14:30.914Z,14.20
2019-04-20T00:19:40.455Z,14.20
2019-04-20T00:25:04.240Z,14.20
2019-04-20T00:30:28.746Z,14.20
2019-04-20T00:35:12.452Z,14.10
2019-04-20T00:40:19.432Z,14.00
2019-04-20T00:45:30.170Z,13.90
2019-04-20T00:50:49.112Z,13.70
2019-04-20T00:55:41.065Z,13.50
2019-04-20T01:01:08.990Z,13.40
2019-04-20T01:06:22.211Z,13.30
2019-04-20T01:11:16.630Z,13.20
2019-04-20T01:16:33.354Z,13.30
2019-04-20T01:21:31.724Z,13.30
2019-04-20T01:26:44.602Z,13.30
2019-04-20T01:31:57.118Z,13.30
2019-04-20T01:37:10.503Z,13.30
2019-04-20T01:42:00.342Z,13.30
2019-04-20T01:47:08.287Z,13.20
2019-04-20T01:52:20.262Z,12.90
2019-04-20T01:57:54.543Z,12.70
2019-04-20T02:02:50.404Z,12.70
2019-04-20T02:07:55.369Z,12.70
2019-04-20T02:13:03.038Z,12.80
2019-04-20T02:18:26.153Z,12.80
2019-04-20T02:23:29.398Z,12.70
2019-04-20T02:28:46.500Z,12.70
2019-04-20T02:34:03.860Z,12.60
2019-04-20T02:39:31.046Z,12.50
2019-04-20T02:49:52.375Z,12.40
2019-04-20T02:54:48.707Z,12.40
2019-04-20T03:04:37.146Z,12.30
2019-04-20T03:09:50.149Z,12.30
2019-04-20T03:14:58.400Z,12.30
2019-04-20T03:20:03.309Z,12.20
2019-04-20T03:25:36.062Z,12.10
2019-04-20T03:36:18.136Z,12.00
2019-04-20T03:41:12.072Z,11.90
2019-04-20T03:46:11.158Z,11.90
2019-04-20T03:51:40.071Z,11.90
2019-04-20T03:57:14.766Z,11.90
2019-04-20T04:02:54.679Z,11.90
2019-04-20T04:07:33.460Z,11.70
2019-04-20T04:13:14.811Z,11.60
2019-04-20T04:18:29.746Z,11.50
2019-04-20T04:23:49.092Z,11.50
2019-04-20T04:28:56.345Z,11.40
2019-04-20T04:34:04.856Z,11.40
2019-04-20T04:39:15.435Z,11.30
2019-04-20T04:44:14.539Z,11.20
2019-04-20T04:49:19.539Z,11.20
2019-04-20T04:54:30.551Z,11.20
2019-04-20T04:59:25.705Z,11.00
2019-04-20T05:05:29.400Z,11.00
2019-04-20T05:10:16.014Z,10.90
2019-04-20T05:15:39.373Z,11.00
2019-04-20T05:20:54.809Z,10.90
2019-04-20T05:26:08.318Z,10.90
2019-04-20T05:30:59.899Z,10.90
2019-04-20T05:36:24.771Z,10.90
2019-04-20T05:41:28.587Z,11.00
2019-04-20T05:46:36.261Z,11.00
2019-04-20T05:51:44.397Z,11.00
2019-04-20T05:57:00.766Z,11.00
2019-04-20T06:02:03.514Z,11.10
2019-04-20T06:07:11.069Z,11.20
2019-04-20T06:12:28.523Z,11.30
2019-04-20T06:17:50.297Z,11.50
2019-04-20T06:23:05.539Z,11.50
2019-04-20T06:28:02.026Z,11.70
2019-04-20T06:34:19.621Z,11.80
2019-04-20T06:39:01.979Z,12.00
2019-04-20T06:44:08.800Z,12.20
2019-04-20T06:49:24.363Z,12.40
2019-04-20T06:54:55.169Z,12.60
2019-04-20T07:00:08.798Z,12.70
2019-04-20T07:05:12.807Z,12.80
2019-04-20T07:15:25.521Z,13.00
2019-04-20T07:21:07.259Z,13.00
2019-04-20T07:26:22.364Z,13.10
2019-04-20T07:31:23.015Z,13.20
2019-04-20T07:36:40.275Z,13.30
2019-04-20T07:42:00.622Z,13.40
2019-04-20T07:47:08.993Z,13.60
2019-04-20T07:51:37.477Z,13.80
2019-04-20T07:57:01.533Z,14.00
2019-04-20T08:02:33.612Z,14.10
2019-04-20T08:07:13.842Z,14.30
2019-04-20T08:13:02.232Z,14.60
2019-04-20T08:23:13.036Z,15.30
2019-04-20T08:28:25.044Z,15.60
2019-04-20T08:33:55.493Z,15.90
2019-04-20T08:39:13.622Z,16.20
2019-04-20T08:44:18.732Z,16.40
2019-04-20T08:49:12.921Z,16.60
2019-04-20T08:54:16.447Z,17.30
2019-04-20T08:59:06.725Z,17.70
2019-04-20T09:04:19.913Z,17.60
2019-04-20T09:09:49.660Z,17.60
2019-04-20T09:14:32.128Z,17.70
2019-04-20T09:19:49.113Z,17.80
2019-04-20T09:25:13.342Z,17.90
2019-04-20T09:30:17.365Z,18.00
2019-04-20T09:35:20.918Z,18.10
2019-04-20T09:40:40.500Z,18.20
2019-04-20T09:45:47.382Z,18.30
2019-04-20T09:51:11.702Z,18.80
2019-04-20T09:56:18.107Z,19.20
2019-04-20T10:01:19.147Z,19.10
2019-04-20T10:06:17.963Z,19.10
2019-04-20T10:11:23.611Z,19.10
2019-04-20T10:16:29.600Z,19.10
2019-04-20T10:21:35.985Z,19.20
2019-04-20T10:26:42.750Z,19.30
2019-04-20T10:31:55.809Z,19.50
2019-04-20T10:37:17.630Z,19.60
2019-04-20T10:42:23.870Z,19.70
2019-04-20T10:47:30.135Z,19.80
2019-04-20T10:52:36.193Z,20.00
2019-04-20T10:57:42.160Z,20.10
2019-04-20T11:02:49.650Z,20.20
2019-04-20T11:07:56.788Z,20.20
2019-04-20T11:13:03.322Z,20.30
2019-04-20T11:18:09.501Z,20.40
2019-04-20T11:23:16.111Z,20.60
2019-04-20T11:28:22.201Z,20.70
2019-04-20T11:33:28.410Z,20.80
2019-04-20T11:38:35.216Z,20.90
2019-04-20T11:43:41.935Z,21.00
2019-04-20T11:48:49.520Z,21.10
2019-04-20T11:53:56.446Z,21.20
2019-04-20T11:59:05.321Z,21.30
2019-04-20T12:04:26.088Z,21.40
2019-04-20T12:09:21.488Z,21.50
2019-04-20T12:14:28.424Z,21.70
2019-04-20T12:19:36.179Z,21.70
2019-04-20T12:24:42.348Z,21.90
2019-04-20T12:29:49.793Z,22.00
2019-04-20T12:34:58.203Z,22.00
2019-04-20T12:40:05.025Z,22.10
2019-04-20T12:45:11.909Z,22.20
2019-04-20T12:50:19.349Z,22.30
2019-04-20T12:55:26.397Z,22.40
2019-04-20T13:00:43.728Z,22.60
2019-04-20T13:05:50.182Z,22.70
2019-04-20T13:11:00.395Z,22.90
2019-04-20T13:16:30.365Z,22.90
2019-04-20T13:21:36.798Z,22.90
2019-04-20T13:26:42.911Z,23.00
2019-04-20T13:31:52.030Z,23.00
2019-04-20T13:36:57.923Z,23.10
2019-04-20T13:42:12.233Z,23.10
2019-04-20T13:47:12.770Z,23.20
2019-04-20T13:52:18.904Z,23.20
2019-04-20T13:57:31.645Z,23.20
2019-04-20T14:02:49.322Z,23.20
2019-04-20T14:07:57.579Z,23.20
2019-04-20T14:13:11.260Z,23.20
2019-04-20T14:18:11.547Z,23.20
2019-04-20T14:23:17.392Z,23.20
2019-04-20T14:28:23.408Z,23.20
2019-04-20T14:33:30.730Z,23.30
2019-04-20T14:38:38.212Z,23.30
2019-04-20T14:43:44.746Z,23.30
2019-04-20T14:48:50.861Z,23.20
2019-04-20T14:53:56.929Z,23.30
2019-04-20T14:59:21.007Z,23.30
2019-04-20T15:04:28.956Z,23.20
2019-04-20T15:09:37.555Z,23.20
2019-04-20T15:14:43.259Z,23.30
2019-04-20T15:20:01.557Z,23.30
2019-04-20T15:25:09.292Z,23.30
2019-04-20T15:30:16.334Z,23.20
2019-04-20T15:35:23.311Z,23.20
2019-04-20T15:40:31.031Z,23.20
2019-04-20T15:45:37.169Z,23.30
2019-04-20T15:50:43.760Z,23.20
2019-04-20T15:55:50.913Z,23.20
2019-04-20T16:00:58.577Z,23.20
2019-04-20T16:06:07.477Z,23.10
2019-04-20T16:11:15.110Z,23.10
2019-04-20T16:16:21.733Z,23.00
2019-04-20T16:21:31.259Z,23.00
2019-04-20T16:26:39.945Z,23.00
2019-04-20T16:31:48.416Z,23.00
2019-04-20T16:36:56.136Z,22.90
2019-04-20T16:42:02.274Z,22.90
2019-04-20T16:47:08.470Z,22.80
2019-04-20T16:52:14.936Z,22.80
2019-04-20T16:57:21.494Z,22.80
2019-04-20T17:02:27.744Z,22.70
2019-04-20T17:07:37.257Z,22.70
2019-04-20T17:12:43.856Z,22.60
2019-04-20T17:17:51.611Z,22.60
2019-04-20T17:22:58.280Z,22.50
2019-04-20T17:28:42.669Z,22.40
2019-04-20T17:34:01.474Z,22.40
2019-04-20T17:39:06.225Z,22.30
2019-04-20T17:44:30.211Z,22.30
2019-04-20T17:49:31.451Z,22.20
2019-04-20T17:54:40.922Z,22.10
2019-04-20T17:59:55.963Z,21.90
2019-04-20T18:05:33.938Z,21.80
2019-04-20T18:10:36.814Z,21.70
2019-04-20T18:15:40.403Z,21.60
2019-04-20T18:20:48.500Z,21.50
2019-04-20T18:26:18.622Z,21.50
2019-04-20T18:31:11.198Z,21.40
2019-04-20T18:36:23.344Z,21.30
2019-04-20T18:41:34.162Z,21.10
2019-04-20T18:46:55.543Z,21.00
2019-04-20T18:51:39.930Z,20.90
2019-04-20T18:56:50.682Z,20.70
2019-04-20T19:01:54.994Z,20.70
2019-04-20T19:07:01.653Z,20.50
2019-04-20T19:12:11.006Z,20.40
2019-04-20T19:17:45.207Z,20.40
2019-04-20T19:22:42.013Z,20.30
2019-04-20T19:27:52.640Z,20.20
2019-04-20T19:33:14.561Z,20.20
2019-04-20T19:38:12.588Z,20.00
2019-04-20T19:43:20.752Z,19.80
2019-04-20T19:48:36.259Z,19.80
2019-04-20T19:53:48.345Z,19.70
2019-04-20T19:58:45.531Z,19.60
2019-04-20T20:03:41.902Z,19.50
2019-04-20T20:08:56.206Z,19.40
2019-04-20T20:13:57.507Z,19.30
2019-04-20T20:19:12.161Z,19.10
2019-04-20T20:24:14.024Z,19.00
2019-04-20T20:29:28.355Z,19.10
2019-04-20T20:34:33.311Z,19.10
2019-04-20T20:39:38.334Z,19.00
2019-04-20T20:44:51.739Z,18.70
2019-04-20T20:50:13.044Z,18.60
2019-04-20T20:55:06.497Z,18.70
2019-04-20T21:00:19.346Z,18.70
2019-04-20T21:05:15.453Z,18.70
2019-04-20T21:10:25.933Z,18.50
2019-04-20T21:15:30.260Z,18.50
2019-04-20T21:20:55.222Z,18.40
2019-04-20T21:26:03.283Z,18.50
2019-04-20T21:31:14.631Z,18.40
2019-04-20T21:36:22.782Z,18.30
2019-04-20T21:41:27.496Z,18.20
2019-04-20T21:46:40.870Z,17.90
2019-04-20T21:51:49.746Z,17.80
2019-04-20T21:56:56.204Z,17.90
2019-04-20T22:02:04.364Z,17.90
2019-04-20T22:07:05.625Z,17.70
2019-04-20T22:12:12.002Z,17.60
2019-04-20T22:17:23.627Z,17.50
2019-04-20T22:22:42.389Z,17.30
2019-04-20T22:27:35.208Z,17.30
2019-04-20T22:32:44.165Z,17.20
2019-04-20T22:37:59.813Z,17.10
2019-04-20T22:43:04.221Z,17.00
2019-04-20T22:48:12.797Z,17.00
2019-04-20T22:53:33.525Z,17.00
2019-04-20T22:58:40.552Z,17.00
2019-04-20T23:03:34.636Z,16.90
2019-04-20T23:08:40.724Z,16.80
2019-04-20T23:13:48.691Z,16.80
2019-04-20T23:18:54.540Z,16.70
2019-04-20T23:24:06.240Z,16.60
2019-04-20T23:29:09.221Z,16.50
2019-04-20T23:34:19.951Z,16.40
2019-04-20T23:39:29.091Z,16.20
2019-04-20T23:45:09.303Z,16.20
2019-04-20T23:50:37.320Z,16.10
2019-04-20T23:55:23.811Z,16.00
